sensor_id;sensor_type;location;lat;lon;timestamp;P1;durP1;ratioP1;P2;durP2;ratioP2
40022;SDS011;25713;-35.352;149.036;2022-10-22T00:01:52;0.63;;;0.50;;
40022;SDS011;25713;-35.352;149.036;2022-10-22T00:04:22;0.80;;;0.75;;
40022;SDS011;25713;-35.352;149.036;2022-10-22T00:06:51;0.90;;;0.63;;
40022;SDS011;25713;-35.352;149.036;2022-10-22T00:09:22;0.70;;;0.70;;
40022;SDS011;25713;-35.352;149.036;2022-10-22T00:11:51;0.98;;;0.70;;
40022;SDS011;25713;-35.352;149.036;2022-10-22T00:14:22;0.60;;;0.57;;
40022;SDS011;25713;-35.352;149.036;2022-10-22T00:16:52;2.22;;;0.60;;
40022;SDS011;25713;-35.352;149.036;2022-10-22T00:19:21;1.92;;;0.70;;
40022;SDS011;25713;-35.352;149.036;2022-10-22T00:21:51;0.60;;;0.60;;
40022;SDS011;25713;-35.352;149.036;2022-10-22T00:24:20;0.80;;;0.60;;
40022;SDS011;25713;-35.352;149.036;2022-10-22T00:26:50;1.48;;;0.63;;
40022;SDS011;25713;-35.352;149.036;2022-10-22T00:29:19;0.70;;;0.60;;
40022;SDS011;25713;-35.352;149.036;2022-10-22T00:31:50;0.65;;;0.63;;
40022;SDS011;25713;-35.352;149.036;2022-10-22T00:34:20;0.68;;;0.68;;
40022;SDS011;25713;-35.352;149.036;2022-10-22T00:36:50;1.10;;;0.60;;
40022;SDS011;25713;-35.352;149.036;2022-10-22T00:39:19;0.82;;;0.65;;
40022;SDS011;25713;-35.352;149.036;2022-10-22T00:41:50;2.10;;;0.70;;
40022;SDS011;25713;-35.352;149.036;2022-10-22T00:47:27;0.55;;;0.55;;
40022;SDS011;25713;-35.352;149.036;2022-10-22T00:49:58;0.90;;;0.75;;
40022;SDS011;25713;-35.352;149.036;2022-10-22T00:52:28;1.00;;;0.70;;
40022;SDS011;25713;-35.352;149.036;2022-10-22T00:54:59;0.80;;;0.70;;
40022;SDS011;25713;-35.352;149.036;2022-10-22T00:57:29;1.00;;;0.65;;
40022;SDS011;25713;-35.352;149.036;2022-10-22T00:59:59;0.73;;;0.60;;
40022;SDS011;25713;-35.352;149.036;2022-10-22T01:02:31;0.68;;;0.65;;
40022;SDS011;25713;-35.352;149.036;2022-10-22T01:05:01;0.85;;;0.60;;
40022;SDS011;25713;-35.352;149.036;2022-10-22T01:07:30;1.15;;;1.02;;
40022;SDS011;25713;-35.352;149.036;2022-10-22T01:10:06;2.42;;;0.70;;
40022;SDS011;25713;-35.352;149.036;2022-10-22T01:12:42;1.10;;;0.60;;
40022;SDS011;25713;-35.352;149.036;2022-10-22T01:15:18;0.95;;;0.65;;
40022;SDS011;25713;-35.352;149.036;2022-10-22T01:17:58;0.80;;;0.60;;
40022;SDS011;25713;-35.352;149.036;2022-10-22T01:20:40;1.02;;;0.73;;
40022;SDS011;25713;-35.352;149.036;2022-10-22T01:23:30;0.80;;;0.65;;
40022;SDS011;25713;-35.352;149.036;2022-10-22T01:26:12;0.57;;;0.50;;
40022;SDS011;25713;-35.352;149.036;2022-10-22T01:28:56;0.50;;;0.50;;
40022;SDS011;25713;-35.352;149.036;2022-10-22T01:31:29;0.60;;;0.50;;
40022;SDS011;25713;-35.352;149.036;2022-10-22T01:36:29;0.55;;;0.52;;
40022;SDS011;25713;-35.352;149.036;2022-10-22T01:39:01;0.75;;;0.55;;
40022;SDS011;25713;-35.352;149.036;2022-10-22T01:41:32;0.65;;;0.65;;
40022;SDS011;25713;-35.352;149.036;2022-10-22T01:44:04;0.88;;;0.60;;
40022;SDS011;25713;-35.352;149.036;2022-10-22T01:46:34;2.92;;;1.10;;
40022;SDS011;25713;-35.352;149.036;2022-10-22T01:49:08;0.93;;;0.80;;
40022;SDS011;25713;-35.352;149.036;2022-10-22T01:51:49;0.80;;;0.80;;
40022;SDS011;25713;-35.352;149.036;2022-10-22T01:54:28;1.02;;;0.80;;
40022;SDS011;25713;-35.352;149.036;2022-10-22T01:57:06;1.13;;;0.70;;
40022;SDS011;25713;-35.352;149.036;2022-10-22T02:02:33;0.80;;;0.80;;
40022;SDS011;25713;-35.352;149.036;2022-10-22T02:05:09;2.88;;;0.85;;
40022;SDS011;25713;-35.352;149.036;2022-10-22T02:07:45;0.70;;;0.68;;
40022;SDS011;25713;-35.352;149.036;2022-10-22T02:10:16;0.60;;;0.60;;
40022;SDS011;25713;-35.352;149.036;2022-10-22T02:12:48;0.80;;;0.80;;
40022;SDS011;25713;-35.352;149.036;2022-10-22T02:15:22;0.85;;;0.80;;
40022;SDS011;25713;-35.352;149.036;2022-10-22T02:17:55;0.70;;;0.70;;
40022;SDS011;25713;-35.352;149.036;2022-10-22T02:20:27;1.05;;;0.75;;
40022;SDS011;25713;-35.352;149.036;2022-10-22T02:22:59;1.05;;;0.93;;
40022;SDS011;25713;-35.352;149.036;2022-10-22T02:25:29;2.25;;;1.00;;
40022;SDS011;25713;-35.352;149.036;2022-10-22T02:28:03;1.98;;;0.90;;
40022;SDS011;25713;-35.352;149.036;2022-10-22T02:30:41;0.90;;;0.90;;
40022;SDS011;25713;-35.352;149.036;2022-10-22T02:33:14;1.15;;;1.00;;
40022;SDS011;25713;-35.352;149.036;2022-10-22T02:35:48;1.25;;;1.02;;
40022;SDS011;25713;-35.352;149.036;2022-10-22T02:38:19;0.80;;;0.80;;
40022;SDS011;25713;-35.352;149.036;2022-10-22T02:40:50;1.77;;;1.10;;
40022;SDS011;25713;-35.352;149.036;2022-10-22T02:43:19;1.20;;;0.90;;
40022;SDS011;25713;-35.352;149.036;2022-10-22T02:45:53;1.50;;;0.87;;
40022;SDS011;25713;-35.352;149.036;2022-10-22T02:48:22;1.27;;;0.90;;
40022;SDS011;25713;-35.352;149.036;2022-10-22T02:50:52;0.70;;;0.70;;
40022;SDS011;25713;-35.352;149.036;2022-10-22T02:53:21;0.80;;;0.80;;
40022;SDS011;25713;-35.352;149.036;2022-10-22T02:55:51;0.82;;;0.75;;
40022;SDS011;25713;-35.352;149.036;2022-10-22T02:58:20;1.02;;;0.90;;
40022;SDS011;25713;-35.352;149.036;2022-10-22T03:00:49;1.00;;;0.82;;
40022;SDS011;25713;-35.352;149.036;2022-10-22T03:03:21;1.48;;;0.90;;
40022;SDS011;25713;-35.352;149.036;2022-10-22T03:05:50;1.83;;;1.00;;
40022;SDS011;25713;-35.352;149.036;2022-10-22T03:08:19;0.90;;;0.82;;
40022;SDS011;25713;-35.352;149.036;2022-10-22T03:10:49;1.15;;;0.70;;
40022;SDS011;25713;-35.352;149.036;2022-10-22T03:13:18;2.00;;;0.80;;
40022;SDS011;25713;-35.352;149.036;2022-10-22T03:15:48;0.82;;;0.82;;
40022;SDS011;25713;-35.352;149.036;2022-10-22T03:18:20;1.10;;;1.00;;
40022;SDS011;25713;-35.352;149.036;2022-10-22T03:20:52;3.47;;;1.10;;
40022;SDS011;25713;-35.352;149.036;2022-10-22T03:23:27;1.33;;;0.82;;
40022;SDS011;25713;-35.352;149.036;2022-10-22T03:25:58;1.10;;;0.93;;
40022;SDS011;25713;-35.352;149.036;2022-10-22T03:28:28;1.20;;;1.10;;
40022;SDS011;25713;-35.352;149.036;2022-10-22T03:30:57;2.70;;;1.10;;
40022;SDS011;25713;-35.352;149.036;2022-10-22T03:33:28;1.75;;;1.10;;
40022;SDS011;25713;-35.352;149.036;2022-10-22T03:35:58;2.38;;;1.20;;
40022;SDS011;25713;-35.352;149.036;2022-10-22T03:38:28;1.10;;;0.80;;
40022;SDS011;25713;-35.352;149.036;2022-10-22T03:40:58;1.92;;;0.70;;
40022;SDS011;25713;-35.352;149.036;2022-10-22T03:43:27;0.80;;;0.80;;
40022;SDS011;25713;-35.352;149.036;2022-10-22T03:45:58;1.20;;;0.98;;
40022;SDS011;25713;-35.352;149.036;2022-10-22T03:48:29;2.10;;;0.82;;
40022;SDS011;25713;-35.352;149.036;2022-10-22T03:50:58;1.00;;;0.90;;
40022;SDS011;25713;-35.352;149.036;2022-10-22T03:53:28;1.73;;;0.80;;
40022;SDS011;25713;-35.352;149.036;2022-10-22T03:55:57;1.00;;;0.80;;
40022;SDS011;25713;-35.352;149.036;2022-10-22T03:58:27;0.70;;;0.70;;
40022;SDS011;25713;-35.352;149.036;2022-10-22T04:00:56;1.25;;;0.77;;
40022;SDS011;25713;-35.352;149.036;2022-10-22T04:03:32;0.80;;;0.70;;
40022;SDS011;25713;-35.352;149.036;2022-10-22T04:06:02;1.47;;;0.80;;
40022;SDS011;25713;-35.352;149.036;2022-10-22T04:08:33;0.60;;;0.60;;
40022;SDS011;25713;-35.352;149.036;2022-10-22T04:11:03;1.75;;;0.70;;
40022;SDS011;25713;-35.352;149.036;2022-10-22T04:13:33;1.27;;;0.70;;
40022;SDS011;25713;-35.352;149.036;2022-10-22T04:16:06;2.45;;;0.70;;
40022;SDS011;25713;-35.352;149.036;2022-10-22T04:18:39;0.80;;;0.80;;
40022;SDS011;25713;-35.352;149.036;2022-10-22T04:21:09;0.70;;;0.70;;
40022;SDS011;25713;-35.352;149.036;2022-10-22T04:23:43;1.58;;;0.77;;
40022;SDS011;25713;-35.352;149.036;2022-10-22T04:26:13;0.70;;;0.70;;
40022;SDS011;25713;-35.352;149.036;2022-10-22T04:28:43;0.60;;;0.60;;
40022;SDS011;25713;-35.352;149.036;2022-10-22T04:31:13;1.20;;;0.65;;
40022;SDS011;25713;-35.352;149.036;2022-10-22T04:33:45;1.05;;;0.90;;
40022;SDS011;25713;-35.352;149.036;2022-10-22T04:36:15;0.80;;;0.70;;
40022;SDS011;25713;-35.352;149.036;2022-10-22T04:38:46;0.93;;;0.70;;
40022;SDS011;25713;-35.352;149.036;2022-10-22T04:41:19;0.60;;;0.60;;
40022;SDS011;25713;-35.352;149.036;2022-10-22T04:43:49;0.90;;;0.70;;
40022;SDS011;25713;-35.352;149.036;2022-10-22T04:46:20;1.58;;;0.70;;
40022;SDS011;25713;-35.352;149.036;2022-10-22T04:48:51;0.80;;;0.80;;
40022;SDS011;25713;-35.352;149.036;2022-10-22T04:51:21;0.80;;;0.80;;
40022;SDS011;25713;-35.352;149.036;2022-10-22T04:53:51;1.40;;;1.10;;
40022;SDS011;25713;-35.352;149.036;2022-10-22T04:56:21;0.98;;;0.70;;
40022;SDS011;25713;-35.352;149.036;2022-10-22T04:58:52;1.17;;;0.73;;
40022;SDS011;25713;-35.352;149.036;2022-10-22T05:01:23;0.70;;;0.70;;
40022;SDS011;25713;-35.352;149.036;2022-10-22T05:03:56;2.22;;;0.80;;
40022;SDS011;25713;-35.352;149.036;2022-10-22T05:06:26;0.70;;;0.60;;
40022;SDS011;25713;-35.352;149.036;2022-10-22T05:08:57;1.10;;;0.80;;
40022;SDS011;25713;-35.352;149.036;2022-10-22T05:11:28;0.90;;;0.80;;
40022;SDS011;25713;-35.352;149.036;2022-10-22T05:13:59;1.10;;;0.80;;
40022;SDS011;25713;-35.352;149.036;2022-10-22T05:16:31;1.25;;;0.70;;
40022;SDS011;25713;-35.352;149.036;2022-10-22T05:19:04;0.80;;;0.63;;
40022;SDS011;25713;-35.352;149.036;2022-10-22T05:21:34;0.70;;;0.70;;
40022;SDS011;25713;-35.352;149.036;2022-10-22T05:24:04;1.25;;;0.70;;
40022;SDS011;25713;-35.352;149.036;2022-10-22T05:26:33;1.58;;;0.70;;
40022;SDS011;25713;-35.352;149.036;2022-10-22T05:29:03;0.77;;;0.63;;
40022;SDS011;25713;-35.352;149.036;2022-10-22T05:31:33;1.23;;;0.90;;
40022;SDS011;25713;-35.352;149.036;2022-10-22T05:34:04;1.52;;;0.70;;
40022;SDS011;25713;-35.352;149.036;2022-10-22T05:36:33;1.30;;;0.80;;
40022;SDS011;25713;-35.352;149.036;2022-10-22T05:39:03;1.15;;;0.90;;
40022;SDS011;25713;-35.352;149.036;2022-10-22T05:41:33;1.55;;;1.00;;
40022;SDS011;25713;-35.352;149.036;2022-10-22T05:44:03;1.05;;;0.95;;
40022;SDS011;25713;-35.352;149.036;2022-10-22T05:46:33;1.10;;;0.85;;
40022;SDS011;25713;-35.352;149.036;2022-10-22T05:49:05;1.80;;;0.98;;
40022;SDS011;25713;-35.352;149.036;2022-10-22T05:51:35;1.65;;;1.00;;
40022;SDS011;25713;-35.352;149.036;2022-10-22T05:54:05;2.25;;;1.00;;
40022;SDS011;25713;-35.352;149.036;2022-10-22T05:56:35;1.48;;;0.82;;
40022;SDS011;25713;-35.352;149.036;2022-10-22T05:59:04;0.85;;;0.80;;
40022;SDS011;25713;-35.352;149.036;2022-10-22T06:01:34;0.98;;;0.80;;
40022;SDS011;25713;-35.352;149.036;2022-10-22T06:04:07;1.10;;;1.00;;
40022;SDS011;25713;-35.352;149.036;2022-10-22T06:06:39;0.88;;;0.80;;
40022;SDS011;25713;-35.352;149.036;2022-10-22T06:09:12;1.60;;;0.95;;
40022;SDS011;25713;-35.352;149.036;2022-10-22T06:11:44;2.78;;;1.13;;
40022;SDS011;25713;-35.352;149.036;2022-10-22T06:14:14;2.17;;;0.98;;
40022;SDS011;25713;-35.352;149.036;2022-10-22T06:16:44;1.13;;;1.00;;
40022;SDS011;25713;-35.352;149.036;2022-10-22T06:19:16;0.77;;;0.77;;
40022;SDS011;25713;-35.352;149.036;2022-10-22T06:21:46;0.80;;;0.80;;
40022;SDS011;25713;-35.352;149.036;2022-10-22T06:24:16;1.10;;;1.00;;
40022;SDS011;25713;-35.352;149.036;2022-10-22T06:26:48;0.98;;;0.80;;
40022;SDS011;25713;-35.352;149.036;2022-10-22T06:29:18;2.33;;;0.85;;
40022;SDS011;25713;-35.352;149.036;2022-10-22T06:31:47;0.77;;;0.70;;
40022;SDS011;25713;-35.352;149.036;2022-10-22T06:34:19;0.90;;;0.90;;
40022;SDS011;25713;-35.352;149.036;2022-10-22T06:36:48;1.08;;;0.98;;
40022;SDS011;25713;-35.352;149.036;2022-10-22T06:39:17;1.13;;;0.70;;
40022;SDS011;25713;-35.352;149.036;2022-10-22T06:41:47;0.60;;;0.60;;
40022;SDS011;25713;-35.352;149.036;2022-10-22T06:44:17;0.73;;;0.60;;
40022;SDS011;25713;-35.352;149.036;2022-10-22T06:46:48;0.80;;;0.70;;
40022;SDS011;25713;-35.352;149.036;2022-10-22T06:49:20;0.93;;;0.80;;
40022;SDS011;25713;-35.352;149.036;2022-10-22T06:51:50;1.60;;;0.67;;
40022;SDS011;25713;-35.352;149.036;2022-10-22T06:54:20;1.00;;;0.70;;
40022;SDS011;25713;-35.352;149.036;2022-10-22T06:56:49;0.70;;;0.68;;
40022;SDS011;25713;-35.352;149.036;2022-10-22T06:59:19;0.73;;;0.70;;
40022;SDS011;25713;-35.352;149.036;2022-10-22T07:01:48;1.40;;;0.80;;
40022;SDS011;25713;-35.352;149.036;2022-10-22T07:04:18;0.93;;;0.70;;
40022;SDS011;25713;-35.352;149.036;2022-10-22T07:06:49;0.60;;;0.60;;
40022;SDS011;25713;-35.352;149.036;2022-10-22T07:09:21;0.82;;;0.65;;
40022;SDS011;25713;-35.352;149.036;2022-10-22T07:11:50;7.70;;;1.10;;
40022;SDS011;25713;-35.352;149.036;2022-10-22T07:14:20;0.70;;;0.70;;
40022;SDS011;25713;-35.352;149.036;2022-10-22T07:16:49;0.85;;;0.70;;
40022;SDS011;25713;-35.352;149.036;2022-10-22T07:19:20;0.90;;;0.60;;
40022;SDS011;25713;-35.352;149.036;2022-10-22T07:21:50;0.90;;;0.60;;
40022;SDS011;25713;-35.352;149.036;2022-10-22T07:24:19;0.90;;;0.60;;
40022;SDS011;25713;-35.352;149.036;2022-10-22T07:26:48;0.60;;;0.60;;
40022;SDS011;25713;-35.352;149.036;2022-10-22T07:29:18;0.50;;;0.50;;
40022;SDS011;25713;-35.352;149.036;2022-10-22T07:31:47;0.77;;;0.70;;
40022;SDS011;25713;-35.352;149.036;2022-10-22T07:34:16;0.68;;;0.60;;
40022;SDS011;25713;-35.352;149.036;2022-10-22T07:36:48;1.10;;;0.47;;
40022;SDS011;25713;-35.352;149.036;2022-10-22T07:39:17;0.60;;;0.50;;
40022;SDS011;25713;-35.352;149.036;2022-10-22T07:41:46;0.80;;;0.60;;
40022;SDS011;25713;-35.352;149.036;2022-10-22T07:44:16;1.17;;;0.68;;
40022;SDS011;25713;-35.352;149.036;2022-10-22T07:46:45;3.40;;;0.73;;
40022;SDS011;25713;-35.352;149.036;2022-10-22T07:49:15;1.25;;;0.60;;
40022;SDS011;25713;-35.352;149.036;2022-10-22T07:51:44;0.65;;;0.55;;
40022;SDS011;25713;-35.352;149.036;2022-10-22T07:54:15;0.50;;;0.50;;
40022;SDS011;25713;-35.352;149.036;2022-10-22T07:56:44;0.52;;;0.47;;
40022;SDS011;25713;-35.352;149.036;2022-10-22T07:59:14;0.90;;;0.57;;
40022;SDS011;25713;-35.352;149.036;2022-10-22T08:01:43;0.50;;;0.50;;
40022;SDS011;25713;-35.352;149.036;2022-10-22T08:04:13;0.65;;;0.55;;
40022;SDS011;25713;-35.352;149.036;2022-10-22T08:06:42;0.95;;;0.60;;
40022;SDS011;25713;-35.352;149.036;2022-10-22T08:09:13;2.40;;;0.70;;
40022;SDS011;25713;-35.352;149.036;2022-10-22T08:11:42;0.85;;;0.55;;
40022;SDS011;25713;-35.352;149.036;2022-10-22T08:14:12;1.17;;;0.70;;
40022;SDS011;25713;-35.352;149.036;2022-10-22T08:16:42;1.42;;;0.70;;
40022;SDS011;25713;-35.352;149.036;2022-10-22T08:19:11;1.80;;;0.68;;
40022;SDS011;25713;-35.352;149.036;2022-10-22T08:21:40;0.95;;;0.80;;
40022;SDS011;25713;-35.352;149.036;2022-10-22T08:24:10;0.70;;;0.70;;
40022;SDS011;25713;-35.352;149.036;2022-10-22T08:26:41;0.73;;;0.60;;
40022;SDS011;25713;-35.352;149.036;2022-10-22T08:29:11;0.93;;;0.60;;
40022;SDS011;25713;-35.352;149.036;2022-10-22T08:31:40;1.00;;;0.63;;
40022;SDS011;25713;-35.352;149.036;2022-10-22T08:34:10;1.13;;;0.63;;
40022;SDS011;25713;-35.352;149.036;2022-10-22T08:36:39;2.47;;;0.70;;
40022;SDS011;25713;-35.352;149.036;2022-10-22T08:39:09;0.55;;;0.50;;
40022;SDS011;25713;-35.352;149.036;2022-10-22T08:41:41;1.10;;;0.80;;
40022;SDS011;25713;-35.352;149.036;2022-10-22T08:44:22;1.08;;;0.70;;
40022;SDS011;25713;-35.352;149.036;2022-10-22T08:49:54;0.95;;;0.52;;
40022;SDS011;25713;-35.352;149.036;2022-10-22T08:52:25;1.73;;;0.63;;
40022;SDS011;25713;-35.352;149.036;2022-10-22T08:54:56;0.80;;;0.68;;
40022;SDS011;25713;-35.352;149.036;2022-10-22T08:57:31;1.73;;;0.70;;
40022;SDS011;25713;-35.352;149.036;2022-10-22T09:00:13;1.23;;;0.70;;
40022;SDS011;25713;-35.352;149.036;2022-10-22T09:02:50;0.73;;;0.60;;
40022;SDS011;25713;-35.352;149.036;2022-10-22T09:05:30;1.85;;;1.20;;
40022;SDS011;25713;-35.352;149.036;2022-10-22T09:08:07;3.00;;;0.80;;
40022;SDS011;25713;-35.352;149.036;2022-10-22T09:10:38;1.15;;;0.60;;
40022;SDS011;25713;-35.352;149.036;2022-10-22T09:13:15;1.17;;;0.80;;
40022;SDS011;25713;-35.352;149.036;2022-10-22T09:15:48;1.15;;;0.90;;
40022;SDS011;25713;-35.352;149.036;2022-10-22T09:18:25;0.98;;;0.82;;
40022;SDS011;25713;-35.352;149.036;2022-10-22T09:21:03;0.93;;;0.80;;
40022;SDS011;25713;-35.352;149.036;2022-10-22T09:23:48;0.63;;;0.60;;
40022;SDS011;25713;-35.352;149.036;2022-10-22T09:26:24;1.33;;;0.70;;
40022;SDS011;25713;-35.352;149.036;2022-10-22T09:28:58;0.70;;;0.70;;
40022;SDS011;25713;-35.352;149.036;2022-10-22T09:31:27;1.27;;;0.90;;
40022;SDS011;25713;-35.352;149.036;2022-10-22T09:33:58;1.20;;;0.70;;
40022;SDS011;25713;-35.352;149.036;2022-10-22T09:36:28;1.55;;;0.80;;
40022;SDS011;25713;-35.352;149.036;2022-10-22T09:38:57;1.15;;;0.90;;
40022;SDS011;25713;-35.352;149.036;2022-10-22T09:41:27;2.03;;;0.73;;
40022;SDS011;25713;-35.352;149.036;2022-10-22T09:43:59;0.90;;;0.82;;
40022;SDS011;25713;-35.352;149.036;2022-10-22T09:46:28;1.40;;;0.90;;
40022;SDS011;25713;-35.352;149.036;2022-10-22T09:49:09;1.15;;;0.90;;
40022;SDS011;25713;-35.352;149.036;2022-10-22T09:51:47;0.82;;;0.70;;
40022;SDS011;25713;-35.352;149.036;2022-10-22T09:54:18;1.77;;;0.95;;
40022;SDS011;25713;-35.352;149.036;2022-10-22T09:56:50;1.93;;;1.00;;
40022;SDS011;25713;-35.352;149.036;2022-10-22T09:59:27;2.15;;;1.10;;
40022;SDS011;25713;-35.352;149.036;2022-10-22T10:01:58;1.45;;;0.90;;
40022;SDS011;25713;-35.352;149.036;2022-10-22T10:04:33;1.50;;;1.00;;
40022;SDS011;25713;-35.352;149.036;2022-10-22T10:07:14;2.30;;;1.10;;
40022;SDS011;25713;-35.352;149.036;2022-10-22T10:09:44;1.42;;;1.17;;
40022;SDS011;25713;-35.352;149.036;2022-10-22T10:12:17;2.50;;;1.33;;
40022;SDS011;25713;-35.352;149.036;2022-10-22T10:14:59;2.40;;;1.10;;
40022;SDS011;25713;-35.352;149.036;2022-10-22T10:17:37;1.63;;;1.23;;
40022;SDS011;25713;-35.352;149.036;2022-10-22T10:20:19;2.45;;;1.20;;
40022;SDS011;25713;-35.352;149.036;2022-10-22T10:22:57;1.83;;;0.95;;
40022;SDS011;25713;-35.352;149.036;2022-10-22T10:25:41;1.23;;;0.90;;
40022;SDS011;25713;-35.352;149.036;2022-10-22T10:28:27;1.48;;;0.70;;
40022;SDS011;25713;-35.352;149.036;2022-10-22T10:31:14;0.95;;;0.70;;
40022;SDS011;25713;-35.352;149.036;2022-10-22T10:33:52;0.70;;;0.70;;
40022;SDS011;25713;-35.352;149.036;2022-10-22T10:36:32;2.10;;;0.73;;
40022;SDS011;25713;-35.352;149.036;2022-10-22T10:39:06;1.75;;;0.88;;
40022;SDS011;25713;-35.352;149.036;2022-10-22T10:41:42;1.70;;;0.70;;
40022;SDS011;25713;-35.352;149.036;2022-10-22T10:44:25;0.88;;;0.80;;
40022;SDS011;25713;-35.352;149.036;2022-10-22T10:47:15;0.65;;;0.60;;
40022;SDS011;25713;-35.352;149.036;2022-10-22T10:50:04;2.50;;;0.63;;
40022;SDS011;25713;-35.352;149.036;2022-10-22T10:52:47;1.45;;;0.93;;
40022;SDS011;25713;-35.352;149.036;2022-10-22T10:55:27;0.82;;;0.60;;
40022;SDS011;25713;-35.352;149.036;2022-10-22T10:58:03;1.00;;;0.70;;
40022;SDS011;25713;-35.352;149.036;2022-10-22T11:00:42;0.60;;;0.60;;
40022;SDS011;25713;-35.352;149.036;2022-10-22T11:03:33;0.77;;;0.55;;
40022;SDS011;25713;-35.352;149.036;2022-10-22T11:06:14;0.77;;;0.50;;
40022;SDS011;25713;-35.352;149.036;2022-10-22T11:08:46;1.50;;;0.82;;
40022;SDS011;25713;-35.352;149.036;2022-10-22T11:11:21;0.93;;;0.50;;
40022;SDS011;25713;-35.352;149.036;2022-10-22T11:13:59;0.40;;;0.40;;
40022;SDS011;25713;-35.352;149.036;2022-10-22T11:16:37;1.48;;;0.50;;
40022;SDS011;25713;-35.352;149.036;2022-10-22T11:19:14;0.85;;;0.60;;
40022;SDS011;25713;-35.352;149.036;2022-10-22T11:21:48;1.05;;;0.50;;
40022;SDS011;25713;-35.352;149.036;2022-10-22T11:24:23;0.57;;;0.50;;
40022;SDS011;25713;-35.352;149.036;2022-10-22T11:26:55;0.50;;;0.50;;
40022;SDS011;25713;-35.352;149.036;2022-10-22T11:29:30;0.80;;;0.70;;
40022;SDS011;25713;-35.352;149.036;2022-10-22T11:32:04;0.60;;;0.50;;
40022;SDS011;25713;-35.352;149.036;2022-10-22T11:34:40;0.85;;;0.50;;
40022;SDS011;25713;-35.352;149.036;2022-10-22T11:37:11;0.55;;;0.50;;
40022;SDS011;25713;-35.352;149.036;2022-10-22T11:39:42;0.50;;;0.50;;
40022;SDS011;25713;-35.352;149.036;2022-10-22T11:42:17;0.47;;;0.47;;
40022;SDS011;25713;-35.352;149.036;2022-10-22T11:44:48;0.60;;;0.60;;
40022;SDS011;25713;-35.352;149.036;2022-10-22T11:47:27;0.63;;;0.60;;
40022;SDS011;25713;-35.352;149.036;2022-10-22T11:50:16;0.57;;;0.50;;
40022;SDS011;25713;-35.352;149.036;2022-10-22T11:52:49;0.63;;;0.50;;
40022;SDS011;25713;-35.352;149.036;2022-10-22T11:55:33;1.20;;;0.50;;
40022;SDS011;25713;-35.352;149.036;2022-10-22T11:58:26;0.77;;;0.50;;
40022;SDS011;25713;-35.352;149.036;2022-10-22T12:06:57;0.52;;;0.43;;
40022;SDS011;25713;-35.352;149.036;2022-10-22T12:09:28;0.40;;;0.40;;
40022;SDS011;25713;-35.352;149.036;2022-10-22T12:12:03;1.23;;;0.52;;
40022;SDS011;25713;-35.352;149.036;2022-10-22T12:14:50;0.30;;;0.30;;
40022;SDS011;25713;-35.352;149.036;2022-10-22T12:17:22;0.45;;;0.35;;
40022;SDS011;25713;-35.352;149.036;2022-10-22T12:19:54;1.05;;;0.40;;
40022;SDS011;25713;-35.352;149.036;2022-10-22T12:22:31;1.00;;;0.50;;
40022;SDS011;25713;-35.352;149.036;2022-10-22T12:25:01;4.35;;;0.43;;
40022;SDS011;25713;-35.352;149.036;2022-10-22T12:27:42;1.35;;;0.30;;
40022;SDS011;25713;-35.352;149.036;2022-10-22T12:30:16;2.20;;;0.60;;
40022;SDS011;25713;-35.352;149.036;2022-10-22T12:32:49;0.50;;;0.50;;
40022;SDS011;25713;-35.352;149.036;2022-10-22T12:35:20;0.40;;;0.40;;
40022;SDS011;25713;-35.352;149.036;2022-10-22T12:37:54;0.47;;;0.40;;
40022;SDS011;25713;-35.352;149.036;2022-10-22T12:40:25;0.40;;;0.40;;
40022;SDS011;25713;-35.352;149.036;2022-10-22T12:42:55;0.85;;;0.50;;
40022;SDS011;25713;-35.352;149.036;2022-10-22T12:45:26;0.40;;;0.40;;
40022;SDS011;25713;-35.352;149.036;2022-10-22T12:47:56;0.50;;;0.50;;
40022;SDS011;25713;-35.352;149.036;2022-10-22T12:50:29;0.30;;;0.30;;
40022;SDS011;25713;-35.352;149.036;2022-10-22T12:53:02;0.70;;;0.50;;
40022;SDS011;25713;-35.352;149.036;2022-10-22T12:55:33;1.05;;;0.50;;
40022;SDS011;25713;-35.352;149.036;2022-10-22T12:58:04;0.45;;;0.43;;
40022;SDS011;25713;-35.352;149.036;2022-10-22T13:00:34;2.10;;;0.60;;
40022;SDS011;25713;-35.352;149.036;2022-10-22T13:03:04;0.50;;;0.50;;
40022;SDS011;25713;-35.352;149.036;2022-10-22T13:05:33;0.57;;;0.57;;
40022;SDS011;25713;-35.352;149.036;2022-10-22T13:08:07;0.50;;;0.50;;
40022;SDS011;25713;-35.352;149.036;2022-10-22T13:10:38;0.50;;;0.50;;
40022;SDS011;25713;-35.352;149.036;2022-10-22T13:16:18;2.28;;;0.70;;
40022;SDS011;25713;-35.352;149.036;2022-10-22T13:18:49;2.70;;;0.70;;
40022;SDS011;25713;-35.352;149.036;2022-10-22T13:21:23;1.35;;;1.00;;
40022;SDS011;25713;-35.352;149.036;2022-10-22T13:23:58;2.10;;;1.30;;
40022;SDS011;25713;-35.352;149.036;2022-10-22T13:26:32;2.65;;;1.05;;
40022;SDS011;25713;-35.352;149.036;2022-10-22T13:29:08;1.65;;;1.17;;
40022;SDS011;25713;-35.352;149.036;2022-10-22T13:31:43;1.38;;;0.95;;
40022;SDS011;25713;-35.352;149.036;2022-10-22T13:34:14;1.73;;;1.10;;
40022;SDS011;25713;-35.352;149.036;2022-10-22T13:36:46;2.70;;;1.05;;
40022;SDS011;25713;-35.352;149.036;2022-10-22T13:39:18;3.47;;;0.90;;
40022;SDS011;25713;-35.352;149.036;2022-10-22T13:44:16;1.17;;;0.80;;
40022;SDS011;25713;-35.352;149.036;2022-10-22T13:46:46;2.65;;;0.90;;
40022;SDS011;25713;-35.352;149.036;2022-10-22T13:49:16;1.40;;;0.90;;
40022;SDS011;25713;-35.352;149.036;2022-10-22T13:51:47;1.05;;;0.70;;
40022;SDS011;25713;-35.352;149.036;2022-10-22T13:54:18;1.02;;;0.82;;
40022;SDS011;25713;-35.352;149.036;2022-10-22T13:56:50;1.20;;;0.80;;
40022;SDS011;25713;-35.352;149.036;2022-10-22T13:59:19;1.08;;;0.90;;
40022;SDS011;25713;-35.352;149.036;2022-10-22T14:01:48;1.38;;;0.98;;
40022;SDS011;25713;-35.352;149.036;2022-10-22T14:04:18;0.90;;;0.60;;
40022;SDS011;25713;-35.352;149.036;2022-10-22T14:06:48;1.40;;;0.70;;
40022;SDS011;25713;-35.352;149.036;2022-10-22T14:09:19;1.50;;;0.80;;
40022;SDS011;25713;-35.352;149.036;2022-10-22T14:11:48;1.30;;;0.70;;
40022;SDS011;25713;-35.352;149.036;2022-10-22T14:14:18;2.33;;;0.90;;
40022;SDS011;25713;-35.352;149.036;2022-10-22T14:16:47;1.33;;;0.88;;
40022;SDS011;25713;-35.352;149.036;2022-10-22T14:19:17;0.95;;;0.80;;
40022;SDS011;25713;-35.352;149.036;2022-10-22T14:21:46;1.80;;;1.10;;
40022;SDS011;25713;-35.352;149.036;2022-10-22T14:24:15;2.38;;;0.93;;
40022;SDS011;25713;-35.352;149.036;2022-10-22T14:26:46;1.67;;;1.00;;
40022;SDS011;25713;-35.352;149.036;2022-10-22T14:29:16;3.92;;;0.90;;
40022;SDS011;25713;-35.352;149.036;2022-10-22T14:31:45;1.00;;;0.70;;
40022;SDS011;25713;-35.352;149.036;2022-10-22T14:34:15;1.50;;;0.70;;
40022;SDS011;25713;-35.352;149.036;2022-10-22T14:36:44;1.00;;;0.90;;
40022;SDS011;25713;-35.352;149.036;2022-10-22T14:39:13;1.17;;;0.90;;
40022;SDS011;25713;-35.352;149.036;2022-10-22T14:41:45;2.00;;;0.95;;
40022;SDS011;25713;-35.352;149.036;2022-10-22T14:44:14;0.70;;;0.70;;
40022;SDS011;25713;-35.352;149.036;2022-10-22T14:46:44;1.20;;;0.90;;
40022;SDS011;25713;-35.352;149.036;2022-10-22T14:49:13;1.83;;;0.88;;
40022;SDS011;25713;-35.352;149.036;2022-10-22T15:54:14;1.92;;;1.05;;
40022;SDS011;25713;-35.352;149.036;2022-10-22T15:56:45;1.08;;;0.85;;
40022;SDS011;25713;-35.352;149.036;2022-10-22T15:59:15;1.55;;;1.17;;
40022;SDS011;25713;-35.352;149.036;2022-10-22T16:01:44;1.98;;;1.00;;
40022;SDS011;25713;-35.352;149.036;2022-10-22T16:04:14;2.00;;;0.90;;